sensor_id;sensor_type;location;lat;lon;timestamp;P1;durP1;ratioP1;P2;durP2;ratioP2
3815;SDS011;1923;48.154;11.536;2022-09-23T00:01:35;6.00;;;4.60;;
3815;SDS011;1923;48.154;11.536;2022-09-23T00:04:03;6.53;;;4.40;;
3815;SDS011;1923;48.154;11.536;2022-09-23T00:06:33;6.50;;;4.80;;
3815;SDS011;1923;48.154;11.536;2022-09-23T00:09:00;5.93;;;3.97;;
3815;SDS011;1923;48.154;11.536;2022-09-23T00:11:28;7.00;;;4.80;;
3815;SDS011;1923;48.154;11.536;2022-09-23T00:13:57;6.17;;;4.67;;
3815;SDS011;1923;48.154;11.536;2022-09-23T00:16:27;8.03;;;4.90;;
3815;SDS011;1923;48.154;11.536;2022-09-23T00:18:57;6.27;;;4.80;;
3815;SDS011;1923;48.154;11.536;2022-09-23T00:21:26;5.57;;;4.10;;
3815;SDS011;1923;48.154;11.536;2022-09-23T00:23:55;5.13;;;4.47;;
3815;SDS011;1923;48.154;11.536;2022-09-23T00:26:23;10.20;;;4.80;;
3815;SDS011;1923;48.154;11.536;2022-09-23T00:28:53;6.47;;;5.23;;
3815;SDS011;1923;48.154;11.536;2022-09-23T00:31:22;5.90;;;4.50;;
3815;SDS011;1923;48.154;11.536;2022-09-23T00:33:52;7.43;;;5.10;;
3815;SDS011;1923;48.154;11.536;2022-09-23T00:36:22;7.87;;;5.13;;
3815;SDS011;1923;48.154;11.536;2022-09-23T00:38:51;5.37;;;4.57;;
3815;SDS011;1923;48.154;11.536;2022-09-23T00:41:21;6.07;;;5.00;;
3815;SDS011;1923;48.154;11.536;2022-09-23T00:43:49;7.13;;;5.10;;
3815;SDS011;1923;48.154;11.536;2022-09-23T00:46:20;8.43;;;5.20;;
3815;SDS011;1923;48.154;11.536;2022-09-23T00:48:51;5.90;;;4.47;;
3815;SDS011;1923;48.154;11.536;2022-09-23T00:51:25;7.00;;;4.67;;
3815;SDS011;1923;48.154;11.536;2022-09-23T00:53:58;6.00;;;5.00;;
3815;SDS011;1923;48.154;11.536;2022-09-23T00:56:30;5.80;;;4.33;;
3815;SDS011;1923;48.154;11.536;2022-09-23T00:58:59;6.40;;;3.80;;
3815;SDS011;1923;48.154;11.536;2022-09-23T01:01:28;6.20;;;5.00;;
3815;SDS011;1923;48.154;11.536;2022-09-23T01:03:56;6.77;;;4.70;;
3815;SDS011;1923;48.154;11.536;2022-09-23T01:06:24;7.37;;;4.53;;
3815;SDS011;1923;48.154;11.536;2022-09-23T01:08:54;7.23;;;5.63;;
3815;SDS011;1923;48.154;11.536;2022-09-23T01:14:19;8.63;;;4.67;;
3815;SDS011;1923;48.154;11.536;2022-09-23T01:16:57;6.67;;;4.70;;
3815;SDS011;1923;48.154;11.536;2022-09-23T01:19:38;5.53;;;4.90;;
3815;SDS011;1923;48.154;11.536;2022-09-23T01:22:29;6.67;;;4.60;;
3815;SDS011;1923;48.154;11.536;2022-09-23T01:25:08;6.77;;;4.83;;
3815;SDS011;1923;48.154;11.536;2022-09-23T01:28:03;6.57;;;4.23;;
3815;SDS011;1923;48.154;11.536;2022-09-23T01:30:54;8.40;;;4.20;;
3815;SDS011;1923;48.154;11.536;2022-09-23T01:33:31;10.03;;;5.70;;
3815;SDS011;1923;48.154;11.536;2022-09-23T01:36:07;6.00;;;4.57;;
3815;SDS011;1923;48.154;11.536;2022-09-23T01:38:42;5.70;;;4.30;;
3815;SDS011;1923;48.154;11.536;2022-09-23T01:41:24;6.70;;;4.70;;
3815;SDS011;1923;48.154;11.536;2022-09-23T01:44:02;6.67;;;5.07;;
3815;SDS011;1923;48.154;11.536;2022-09-23T01:46:37;7.70;;;4.90;;
3815;SDS011;1923;48.154;11.536;2022-09-23T01:49:17;7.33;;;5.27;;
3815;SDS011;1923;48.154;11.536;2022-09-23T01:51:48;5.73;;;4.50;;
3815;SDS011;1923;48.154;11.536;2022-09-23T01:54:21;7.10;;;4.90;;
3815;SDS011;1923;48.154;11.536;2022-09-23T01:56:56;6.23;;;4.83;;
3815;SDS011;1923;48.154;11.536;2022-09-23T01:59:29;8.53;;;5.33;;
3815;SDS011;1923;48.154;11.536;2022-09-23T02:02:03;6.10;;;4.40;;
3815;SDS011;1923;48.154;11.536;2022-09-23T02:04:36;7.90;;;5.70;;
3815;SDS011;1923;48.154;11.536;2022-09-23T02:07:12;7.70;;;5.50;;
3815;SDS011;1923;48.154;11.536;2022-09-23T02:09:46;8.27;;;5.10;;
3815;SDS011;1923;48.154;11.536;2022-09-23T02:12:19;6.70;;;5.13;;
3815;SDS011;1923;48.154;11.536;2022-09-23T02:14:51;7.63;;;5.40;;
3815;SDS011;1923;48.154;11.536;2022-09-23T02:17:27;7.70;;;5.10;;
3815;SDS011;1923;48.154;11.536;2022-09-23T02:20:00;7.40;;;5.27;;
3815;SDS011;1923;48.154;11.536;2022-09-23T02:22:33;5.60;;;4.53;;
3815;SDS011;1923;48.154;11.536;2022-09-23T02:25:07;8.67;;;6.13;;
3815;SDS011;1923;48.154;11.536;2022-09-23T02:27:38;7.13;;;5.37;;
3815;SDS011;1923;48.154;11.536;2022-09-23T02:30:12;6.33;;;5.23;;
3815;SDS011;1923;48.154;11.536;2022-09-23T02:32:46;7.53;;;5.23;;
3815;SDS011;1923;48.154;11.536;2022-09-23T02:35:19;7.90;;;5.80;;
3815;SDS011;1923;48.154;11.536;2022-09-23T02:37:56;6.80;;;5.30;;
3815;SDS011;1923;48.154;11.536;2022-09-23T02:40:35;6.90;;;4.80;;
3815;SDS011;1923;48.154;11.536;2022-09-23T02:43:08;5.27;;;4.43;;
3815;SDS011;1923;48.154;11.536;2022-09-23T02:45:45;7.27;;;5.40;;
3815;SDS011;1923;48.154;11.536;2022-09-23T02:48:16;6.10;;;5.30;;
3815;SDS011;1923;48.154;11.536;2022-09-23T02:50:48;7.87;;;5.30;;
3815;SDS011;1923;48.154;11.536;2022-09-23T02:53:16;5.93;;;4.43;;
3815;SDS011;1923;48.154;11.536;2022-09-23T02:55:44;7.20;;;5.30;;
3815;SDS011;1923;48.154;11.536;2022-09-23T02:58:12;6.23;;;4.40;;
3815;SDS011;1923;48.154;11.536;2022-09-23T03:00:42;8.23;;;5.23;;
3815;SDS011;1923;48.154;11.536;2022-09-23T03:03:27;7.50;;;5.73;;
3815;SDS011;1923;48.154;11.536;2022-09-23T03:06:04;5.30;;;4.77;;
3815;SDS011;1923;48.154;11.536;2022-09-23T03:08:41;5.77;;;4.90;;
3815;SDS011;1923;48.154;11.536;2022-09-23T03:11:15;6.67;;;5.20;;
3815;SDS011;1923;48.154;11.536;2022-09-23T03:13:49;5.23;;;4.33;;
3815;SDS011;1923;48.154;11.536;2022-09-23T03:16:31;8.17;;;4.93;;
3815;SDS011;1923;48.154;11.536;2022-09-23T03:19:10;10.27;;;5.10;;
3815;SDS011;1923;48.154;11.536;2022-09-23T03:21:50;7.43;;;5.90;;
3815;SDS011;1923;48.154;11.536;2022-09-23T03:24:25;8.97;;;6.07;;
3815;SDS011;1923;48.154;11.536;2022-09-23T03:26:57;8.30;;;5.43;;
3815;SDS011;1923;48.154;11.536;2022-09-23T03:29:27;7.47;;;5.43;;
3815;SDS011;1923;48.154;11.536;2022-09-23T03:31:57;7.10;;;4.60;;
3815;SDS011;1923;48.154;11.536;2022-09-23T03:34:28;5.53;;;4.80;;
3815;SDS011;1923;48.154;11.536;2022-09-23T03:37:02;7.83;;;5.20;;
3815;SDS011;1923;48.154;11.536;2022-09-23T03:39:38;5.60;;;4.43;;
3815;SDS011;1923;48.154;11.536;2022-09-23T03:42:09;4.90;;;4.17;;
3815;SDS011;1923;48.154;11.536;2022-09-23T03:44:42;5.97;;;3.90;;
3815;SDS011;1923;48.154;11.536;2022-09-23T03:47:11;7.80;;;3.90;;
3815;SDS011;1923;48.154;11.536;2022-09-23T03:49:41;5.87;;;3.93;;
3815;SDS011;1923;48.154;11.536;2022-09-23T03:52:13;4.80;;;3.70;;
3815;SDS011;1923;48.154;11.536;2022-09-23T03:54:41;5.87;;;3.60;;
3815;SDS011;1923;48.154;11.536;2022-09-23T03:57:10;5.23;;;3.77;;
3815;SDS011;1923;48.154;11.536;2022-09-23T03:59:38;7.60;;;4.03;;
3815;SDS011;1923;48.154;11.536;2022-09-23T04:02:06;6.27;;;3.97;;
3815;SDS011;1923;48.154;11.536;2022-09-23T04:04:34;5.33;;;4.00;;
3815;SDS011;1923;48.154;11.536;2022-09-23T04:07:05;7.90;;;4.50;;
3815;SDS011;1923;48.154;11.536;2022-09-23T04:09:33;5.03;;;3.77;;
3815;SDS011;1923;48.154;11.536;2022-09-23T04:12:01;5.43;;;4.00;;
3815;SDS011;1923;48.154;11.536;2022-09-23T04:14:30;6.27;;;4.50;;
3815;SDS011;1923;48.154;11.536;2022-09-23T04:16:58;5.37;;;3.90;;
3815;SDS011;1923;48.154;11.536;2022-09-23T04:19:26;4.20;;;3.67;;
3815;SDS011;1923;48.154;11.536;2022-09-23T04:21:54;5.27;;;3.80;;
3815;SDS011;1923;48.154;11.536;2022-09-23T04:24:24;8.70;;;5.13;;
3815;SDS011;1923;48.154;11.536;2022-09-23T04:26:52;5.83;;;4.60;;
3815;SDS011;1923;48.154;11.536;2022-09-23T04:29:22;7.47;;;5.07;;
3815;SDS011;1923;48.154;11.536;2022-09-23T04:31:51;4.90;;;4.33;;
3815;SDS011;1923;48.154;11.536;2022-09-23T04:34:20;8.23;;;5.50;;
3815;SDS011;1923;48.154;11.536;2022-09-23T04:36:48;6.13;;;4.70;;
3815;SDS011;1923;48.154;11.536;2022-09-23T04:39:16;7.90;;;4.57;;
3815;SDS011;1923;48.154;11.536;2022-09-23T04:48:02;7.43;;;5.00;;
3815;SDS011;1923;48.154;11.536;2022-09-23T04:50:48;6.63;;;4.60;;
3815;SDS011;1923;48.154;11.536;2022-09-23T04:53:34;6.83;;;4.83;;
3815;SDS011;1923;48.154;11.536;2022-09-23T04:56:21;5.77;;;3.93;;
3815;SDS011;1923;48.154;11.536;2022-09-23T04:58:50;9.37;;;4.17;;
3815;SDS011;1923;48.154;11.536;2022-09-23T05:01:20;7.50;;;4.43;;
3815;SDS011;1923;48.154;11.536;2022-09-23T05:03:52;6.17;;;4.50;;
3815;SDS011;1923;48.154;11.536;2022-09-23T05:06:21;4.33;;;3.93;;
3815;SDS011;1923;48.154;11.536;2022-09-23T05:08:49;5.83;;;4.20;;
3815;SDS011;1923;48.154;11.536;2022-09-23T05:11:19;5.57;;;4.17;;
3815;SDS011;1923;48.154;11.536;2022-09-23T05:13:47;7.70;;;4.63;;
3815;SDS011;1923;48.154;11.536;2022-09-23T05:16:18;6.17;;;4.83;;
3815;SDS011;1923;48.154;11.536;2022-09-23T05:18:48;5.00;;;4.03;;
3815;SDS011;1923;48.154;11.536;2022-09-23T05:21:19;7.60;;;4.50;;
3815;SDS011;1923;48.154;11.536;2022-09-23T05:23:49;7.37;;;3.97;;
3815;SDS011;1923;48.154;11.536;2022-09-23T05:26:20;6.97;;;4.87;;
3815;SDS011;1923;48.154;11.536;2022-09-23T05:28:48;8.10;;;4.70;;
3815;SDS011;1923;48.154;11.536;2022-09-23T05:31:17;5.80;;;4.83;;
3815;SDS011;1923;48.154;11.536;2022-09-23T05:33:47;4.90;;;4.40;;
3815;SDS011;1923;48.154;11.536;2022-09-23T05:36:18;5.27;;;4.37;;
3815;SDS011;1923;48.154;11.536;2022-09-23T05:38:47;6.03;;;4.50;;
3815;SDS011;1923;48.154;11.536;2022-09-23T05:41:17;6.90;;;4.43;;
3815;SDS011;1923;48.154;11.536;2022-09-23T05:43:48;6.53;;;4.30;;
3815;SDS011;1923;48.154;11.536;2022-09-23T05:46:17;7.43;;;4.57;;
3815;SDS011;1923;48.154;11.536;2022-09-23T05:48:46;6.60;;;4.60;;
3815;SDS011;1923;48.154;11.536;2022-09-23T05:51:14;5.57;;;3.73;;
3815;SDS011;1923;48.154;11.536;2022-09-23T05:53:45;7.17;;;4.80;;
3815;SDS011;1923;48.154;11.536;2022-09-23T05:56:15;7.47;;;4.30;;
3815;SDS011;1923;48.154;11.536;2022-09-23T05:58:43;8.97;;;4.40;;
3815;SDS011;1923;48.154;11.536;2022-09-23T06:01:13;9.90;;;3.43;;
3815;SDS011;1923;48.154;11.536;2022-09-23T06:03:44;5.83;;;4.43;;
3815;SDS011;1923;48.154;11.536;2022-09-23T06:06:12;4.83;;;3.90;;
3815;SDS011;1923;48.154;11.536;2022-09-23T06:08:43;6.00;;;3.40;;
3815;SDS011;1923;48.154;11.536;2022-09-23T06:11:12;4.13;;;3.50;;
3815;SDS011;1923;48.154;11.536;2022-09-23T06:13:41;6.10;;;3.93;;
3815;SDS011;1923;48.154;11.536;2022-09-23T06:16:10;5.33;;;4.10;;
3815;SDS011;1923;48.154;11.536;2022-09-23T06:18:39;4.67;;;3.60;;
3815;SDS011;1923;48.154;11.536;2022-09-23T06:21:09;6.97;;;4.00;;
3815;SDS011;1923;48.154;11.536;2022-09-23T06:23:39;5.30;;;3.70;;
3815;SDS011;1923;48.154;11.536;2022-09-23T06:26:09;3.97;;;3.13;;
3815;SDS011;1923;48.154;11.536;2022-09-23T06:28:39;6.90;;;4.10;;
3815;SDS011;1923;48.154;11.536;2022-09-23T06:31:10;4.43;;;3.53;;
3815;SDS011;1923;48.154;11.536;2022-09-23T06:33:40;5.07;;;3.33;;
3815;SDS011;1923;48.154;11.536;2022-09-23T06:36:10;5.80;;;4.03;;
3815;SDS011;1923;48.154;11.536;2022-09-23T06:38:55;5.63;;;3.47;;
3815;SDS011;1923;48.154;11.536;2022-09-23T06:41:25;6.23;;;3.90;;
3815;SDS011;1923;48.154;11.536;2022-09-23T06:43:53;4.23;;;3.60;;
3815;SDS011;1923;48.154;11.536;2022-09-23T06:46:21;4.63;;;3.67;;
3815;SDS011;1923;48.154;11.536;2022-09-23T06:48:49;11.90;;;4.10;;
3815;SDS011;1923;48.154;11.536;2022-09-23T06:51:17;5.30;;;3.60;;
3815;SDS011;1923;48.154;11.536;2022-09-23T06:53:46;4.00;;;3.60;;
3815;SDS011;1923;48.154;11.536;2022-09-23T06:56:14;7.30;;;3.67;;
3815;SDS011;1923;48.154;11.536;2022-09-23T06:58:46;6.83;;;3.20;;
3815;SDS011;1923;48.154;11.536;2022-09-23T07:01:16;3.37;;;2.83;;
3815;SDS011;1923;48.154;11.536;2022-09-23T07:03:45;6.67;;;3.60;;
3815;SDS011;1923;48.154;11.536;2022-09-23T07:06:14;4.70;;;3.40;;
3815;SDS011;1923;48.154;11.536;2022-09-23T07:08:42;5.03;;;3.17;;
3815;SDS011;1923;48.154;11.536;2022-09-23T07:11:13;3.93;;;3.53;;
3815;SDS011;1923;48.154;11.536;2022-09-23T07:13:42;5.23;;;4.03;;
3815;SDS011;1923;48.154;11.536;2022-09-23T07:16:12;5.70;;;4.50;;
3815;SDS011;1923;48.154;11.536;2022-09-23T07:18:40;4.93;;;3.67;;
3815;SDS011;1923;48.154;11.536;2022-09-23T07:21:09;6.23;;;4.00;;
3815;SDS011;1923;48.154;11.536;2022-09-23T07:23:41;4.87;;;3.90;;
3815;SDS011;1923;48.154;11.536;2022-09-23T07:26:09;5.40;;;3.90;;
3815;SDS011;1923;48.154;11.536;2022-09-23T07:28:37;4.23;;;3.37;;
3815;SDS011;1923;48.154;11.536;2022-09-23T07:31:06;5.80;;;3.80;;
3815;SDS011;1923;48.154;11.536;2022-09-23T07:33:37;5.07;;;3.97;;
3815;SDS011;1923;48.154;11.536;2022-09-23T07:36:11;3.37;;;3.07;;
3815;SDS011;1923;48.154;11.536;2022-09-23T07:38:42;2.90;;;2.70;;
3815;SDS011;1923;48.154;11.536;2022-09-23T07:41:11;4.37;;;3.50;;
3815;SDS011;1923;48.154;11.536;2022-09-23T07:43:41;6.27;;;3.83;;
3815;SDS011;1923;48.154;11.536;2022-09-23T07:46:10;3.53;;;3.00;;
3815;SDS011;1923;48.154;11.536;2022-09-23T07:48:43;4.23;;;3.30;;
3815;SDS011;1923;48.154;11.536;2022-09-23T07:51:12;4.80;;;2.77;;
3815;SDS011;1923;48.154;11.536;2022-09-23T07:53:45;4.37;;;3.13;;
3815;SDS011;1923;48.154;11.536;2022-09-23T07:56:13;4.83;;;3.53;;
3815;SDS011;1923;48.154;11.536;2022-09-23T07:58:44;3.63;;;2.80;;
3815;SDS011;1923;48.154;11.536;2022-09-23T08:01:26;2.87;;;2.57;;
3815;SDS011;1923;48.154;11.536;2022-09-23T08:03:56;2.70;;;2.27;;
3815;SDS011;1923;48.154;11.536;2022-09-23T08:06:24;5.30;;;3.17;;
3815;SDS011;1923;48.154;11.536;2022-09-23T08:08:55;4.13;;;2.93;;
3815;SDS011;1923;48.154;11.536;2022-09-23T08:11:25;3.40;;;2.40;;
3815;SDS011;1923;48.154;11.536;2022-09-23T08:13:54;6.50;;;2.43;;
3815;SDS011;1923;48.154;11.536;2022-09-23T08:16:22;3.60;;;2.30;;
3815;SDS011;1923;48.154;11.536;2022-09-23T08:18:50;2.73;;;2.33;;
3815;SDS011;1923;48.154;11.536;2022-09-23T08:21:20;5.00;;;2.50;;
3815;SDS011;1923;48.154;11.536;2022-09-23T08:23:49;3.50;;;2.33;;
3815;SDS011;1923;48.154;11.536;2022-09-23T08:26:17;2.50;;;2.10;;
3815;SDS011;1923;48.154;11.536;2022-09-23T08:28:47;2.63;;;2.10;;
3815;SDS011;1923;48.154;11.536;2022-09-23T08:31:19;6.10;;;2.80;;
3815;SDS011;1923;48.154;11.536;2022-09-23T08:33:52;4.83;;;2.60;;
3815;SDS011;1923;48.154;11.536;2022-09-23T08:36:22;3.70;;;2.00;;
3815;SDS011;1923;48.154;11.536;2022-09-23T08:38:50;2.90;;;1.87;;
3815;SDS011;1923;48.154;11.536;2022-09-23T08:41:20;4.20;;;2.17;;
3815;SDS011;1923;48.154;11.536;2022-09-23T08:43:55;4.67;;;2.90;;
3815;SDS011;1923;48.154;11.536;2022-09-23T08:46:26;3.60;;;2.70;;
3815;SDS011;1923;48.154;11.536;2022-09-23T08:48:58;2.57;;;1.90;;
3815;SDS011;1923;48.154;11.536;2022-09-23T08:51:32;3.20;;;2.30;;
3815;SDS011;1923;48.154;11.536;2022-09-23T08:54:03;3.80;;;1.97;;
3815;SDS011;1923;48.154;11.536;2022-09-23T08:56:33;3.40;;;1.93;;
3815;SDS011;1923;48.154;11.536;2022-09-23T08:59:04;2.57;;;2.07;;
3815;SDS011;1923;48.154;11.536;2022-09-23T09:01:38;3.70;;;2.30;;
3815;SDS011;1923;48.154;11.536;2022-09-23T09:04:14;2.40;;;2.07;;
3815;SDS011;1923;48.154;11.536;2022-09-23T09:06:47;3.30;;;1.80;;
3815;SDS011;1923;48.154;11.536;2022-09-23T09:09:22;4.67;;;2.03;;
3815;SDS011;1923;48.154;11.536;2022-09-23T09:11:54;3.63;;;2.23;;
3815;SDS011;1923;48.154;11.536;2022-09-23T09:14:31;3.70;;;2.13;;
3815;SDS011;1923;48.154;11.536;2022-09-23T09:17:03;4.63;;;1.90;;
3815;SDS011;1923;48.154;11.536;2022-09-23T09:22:26;2.23;;;1.90;;
3815;SDS011;1923;48.154;11.536;2022-09-23T09:25:11;2.90;;;2.03;;
3815;SDS011;1923;48.154;11.536;2022-09-23T09:27:49;4.87;;;2.13;;
3815;SDS011;1923;48.154;11.536;2022-09-23T09:30:17;3.10;;;2.20;;
3815;SDS011;1923;48.154;11.536;2022-09-23T09:32:46;2.70;;;2.20;;
3815;SDS011;1923;48.154;11.536;2022-09-23T09:35:24;4.40;;;2.37;;
3815;SDS011;1923;48.154;11.536;2022-09-23T09:38:00;2.70;;;2.20;;
3815;SDS011;1923;48.154;11.536;2022-09-23T09:40:28;3.07;;;2.10;;
3815;SDS011;1923;48.154;11.536;2022-09-23T09:42:56;2.33;;;2.13;;
3815;SDS011;1923;48.154;11.536;2022-09-23T09:45:27;3.20;;;2.40;;
3815;SDS011;1923;48.154;11.536;2022-09-23T09:48:09;2.50;;;2.13;;
3815;SDS011;1923;48.154;11.536;2022-09-23T09:50:44;3.93;;;2.60;;
3815;SDS011;1923;48.154;11.536;2022-09-23T09:53:23;2.03;;;1.83;;
3815;SDS011;1923;48.154;11.536;2022-09-23T09:55:58;2.87;;;1.90;;
3815;SDS011;1923;48.154;11.536;2022-09-23T09:58:35;2.90;;;2.60;;
3815;SDS011;1923;48.154;11.536;2022-09-23T10:01:17;2.80;;;2.10;;
3815;SDS011;1923;48.154;11.536;2022-09-23T10:03:47;3.60;;;2.40;;
3815;SDS011;1923;48.154;11.536;2022-09-23T10:06:22;2.40;;;2.13;;
3815;SDS011;1923;48.154;11.536;2022-09-23T10:09:03;1.60;;;1.50;;
3815;SDS011;1923;48.154;11.536;2022-09-23T10:11:40;3.00;;;2.40;;
3815;SDS011;1923;48.154;11.536;2022-09-23T10:14:12;2.57;;;2.13;;
3815;SDS011;1923;48.154;11.536;2022-09-23T10:16:44;2.97;;;1.83;;
3815;SDS011;1923;48.154;11.536;2022-09-23T10:19:17;3.23;;;2.10;;
3815;SDS011;1923;48.154;11.536;2022-09-23T10:21:55;2.33;;;1.67;;
3815;SDS011;1923;48.154;11.536;2022-09-23T10:24:28;1.83;;;1.70;;
3815;SDS011;1923;48.154;11.536;2022-09-23T10:26:58;2.30;;;1.70;;
3815;SDS011;1923;48.154;11.536;2022-09-23T10:29:29;3.77;;;2.00;;
3815;SDS011;1923;48.154;11.536;2022-09-23T10:34:48;2.00;;;1.73;;
3815;SDS011;1923;48.154;11.536;2022-09-23T10:37:21;3.43;;;2.07;;
3815;SDS011;1923;48.154;11.536;2022-09-23T10:39:55;2.70;;;2.07;;
3815;SDS011;1923;48.154;11.536;2022-09-23T10:45:52;1.57;;;1.43;;
3815;SDS011;1923;48.154;11.536;2022-09-23T10:48:45;1.83;;;1.70;;
3815;SDS011;1923;48.154;11.536;2022-09-23T10:51:23;2.77;;;1.93;;
3815;SDS011;1923;48.154;11.536;2022-09-23T10:53:59;1.90;;;1.70;;
3815;SDS011;1923;48.154;11.536;2022-09-23T10:56:36;2.20;;;1.57;;
3815;SDS011;1923;48.154;11.536;2022-09-23T10:59:16;2.77;;;1.90;;
3815;SDS011;1923;48.154;11.536;2022-09-23T11:02:19;2.27;;;1.33;;
3815;SDS011;1923;48.154;11.536;2022-09-23T11:05:04;2.43;;;1.60;;
3815;SDS011;1923;48.154;11.536;2022-09-23T11:07:47;3.33;;;1.70;;
3815;SDS011;1923;48.154;11.536;2022-09-23T11:10:33;1.33;;;1.23;;
3815;SDS011;1923;48.154;11.536;2022-09-23T11:13:28;2.13;;;1.80;;
3815;SDS011;1923;48.154;11.536;2022-09-23T11:16:12;2.73;;;1.97;;
3815;SDS011;1923;48.154;11.536;2022-09-23T11:18:54;4.10;;;1.40;;
3815;SDS011;1923;48.154;11.536;2022-09-23T11:21:38;4.63;;;1.80;;
3815;SDS011;1923;48.154;11.536;2022-09-23T11:24:28;1.77;;;1.57;;
3815;SDS011;1923;48.154;11.536;2022-09-23T11:27:21;3.13;;;2.03;;
3815;SDS011;1923;48.154;11.536;2022-09-23T11:30:02;2.60;;;1.87;;
3815;SDS011;1923;48.154;11.536;2022-09-23T11:32:48;2.60;;;2.00;;
3815;SDS011;1923;48.154;11.536;2022-09-23T11:35:29;4.57;;;2.00;;
3815;SDS011;1923;48.154;11.536;2022-09-23T11:38:03;3.37;;;2.33;;
3815;SDS011;1923;48.154;11.536;2022-09-23T11:40:37;3.20;;;2.37;;
3815;SDS011;1923;48.154;11.536;2022-09-23T11:43:13;3.53;;;2.47;;
3815;SDS011;1923;48.154;11.536;2022-09-23T11:45:49;4.80;;;2.17;;
3815;SDS011;1923;48.154;11.536;2022-09-23T11:48:25;2.60;;;1.97;;
3815;SDS011;1923;48.154;11.536;2022-09-23T11:50:59;3.50;;;2.20;;
3815;SDS011;1923;48.154;11.536;2022-09-23T11:53:33;3.20;;;2.40;;
3815;SDS011;1923;48.154;11.536;2022-09-23T11:56:08;2.53;;;1.73;;
3815;SDS011;1923;48.154;11.536;2022-09-23T11:58:57;4.97;;;2.87;;
3815;SDS011;1923;48.154;11.536;2022-09-23T12:01:33;3.57;;;2.30;;
3815;SDS011;1923;48.154;11.536;2022-09-23T12:04:12;7.10;;;4.63;;
3815;SDS011;1923;48.154;11.536;2022-09-23T12:06:50;2.77;;;2.33;;
3815;SDS011;1923;48.154;11.536;2022-09-23T12:09:23;2.73;;;1.90;;
3815;SDS011;1923;48.154;11.536;2022-09-23T12:12:19;3.20;;;2.60;;
3815;SDS011;1923;48.154;11.536;2022-09-23T12:14:55;3.97;;;2.27;;
3815;SDS011;1923;48.154;11.536;2022-09-23T12:17:52;2.40;;;2.10;;
3815;SDS011;1923;48.154;11.536;2022-09-23T12:20:52;4.50;;;2.70;;
3815;SDS011;1923;48.154;11.536;2022-09-23T12:23:37;3.13;;;2.27;;
3815;SDS011;1923;48.154;11.536;2022-09-23T12:26:18;4.60;;;3.43;;
3815;SDS011;1923;48.154;11.536;2022-09-23T12:28:49;4.53;;;2.57;;
3815;SDS011;1923;48.154;11.536;2022-09-23T12:31:20;4.17;;;2.60;;
3815;SDS011;1923;48.154;11.536;2022-09-23T12:33:57;3.20;;;2.40;;
3815;SDS011;1923;48.154;11.536;2022-09-23T12:36:28;4.20;;;2.23;;
3815;SDS011;1923;48.154;11.536;2022-09-23T12:39:01;3.80;;;2.50;;
3815;SDS011;1923;48.154;11.536;2022-09-23T12:41:31;2.83;;;2.40;;
3815;SDS011;1923;48.154;11.536;2022-09-23T12:44:13;5.30;;;3.00;;
3815;SDS011;1923;48.154;11.536;2022-09-23T12:49:56;3.90;;;3.00;;
3815;SDS011;1923;48.154;11.536;2022-09-23T12:52:26;3.43;;;2.90;;
3815;SDS011;1923;48.154;11.536;2022-09-23T12:54:57;5.63;;;2.87;;
3815;SDS011;1923;48.154;11.536;2022-09-23T12:57:45;9.83;;;4.27;;
3815;SDS011;1923;48.154;11.536;2022-09-23T13:00:20;3.37;;;3.07;;
3815;SDS011;1923;48.154;11.536;2022-09-23T13:02:51;4.17;;;3.30;;
3815;SDS011;1923;48.154;11.536;2022-09-23T13:05:46;3.53;;;2.43;;
3815;SDS011;1923;48.154;11.536;2022-09-23T13:08:35;4.70;;;2.83;;
3815;SDS011;1923;48.154;11.536;2022-09-23T13:11:06;3.93;;;;;
3815;SDS011;1923;48.154;11.536;2022-09-23T13:13:45;4.80;;;3.57;;
3815;SDS011;1923;48.154;11.536;2022-09-23T13:16:19;5.10;;;3.00;;
3815;SDS011;1923;48.154;11.536;2022-09-23T13:18:50;6.17;;;3.23;;
3815;SDS011;1923;48.154;11.536;2022-09-23T13:24:34;4.73;;;2.77;;
3815;SDS011;1923;48.154;11.536;2022-09-23T13:27:10;4.90;;;3.13;;
3815;SDS011;1923;48.154;11.536;2022-09-23T13:29:42;4.47;;;2.90;;
3815;SDS011;1923;48.154;11.536;2022-09-23T13:32:16;4.00;;;2.70;;
3815;SDS011;1923;48.154;11.536;2022-09-23T13:34:45;4.23;;;2.80;;
3815;SDS011;1923;48.154;11.536;2022-09-23T13:37:23;4.20;;;3.30;;
3815;SDS011;1923;48.154;11.536;2022-09-23T13:40:05;7.03;;;2.97;;
3815;SDS011;1923;48.154;11.536;2022-09-23T13:42:36;4.20;;;3.00;;
3815;SDS011;1923;48.154;11.536;2022-09-23T13:45:11;3.70;;;3.10;;
3815;SDS011;1923;48.154;11.536;2022-09-23T13:47:42;6.60;;;3.13;;
3815;SDS011;1923;48.154;11.536;2022-09-23T13:50:18;4.47;;;2.73;;
3815;SDS011;1923;48.154;11.536;2022-09-23T13:52:51;4.77;;;3.30;;
3815;SDS011;1923;48.154;11.536;2022-09-23T13:55:25;5.20;;;3.67;;
3815;SDS011;1923;48.154;11.536;2022-09-23T13:58:00;4.87;;;3.67;;
3815;SDS011;1923;48.154;11.536;2022-09-23T14:00:33;5.90;;;3.10;;
3815;SDS011;1923;48.154;11.536;2022-09-23T14:03:14;5.70;;;3.27;;
3815;SDS011;1923;48.154;11.536;2022-09-23T14:05:43;3.83;;;2.83;;
3815;SDS011;1923;48.154;11.536;2022-09-23T14:08:14;3.50;;;2.60;;
3815;SDS011;1923;48.154;11.536;2022-09-23T14:10:43;5.20;;;3.77;;
3815;SDS011;1923;48.154;11.536;2022-09-23T14:13:13;5.00;;;3.30;;
3815;SDS011;1923;48.154;11.536;2022-09-23T14:15:50;5.20;;;3.90;;
3815;SDS011;1923;48.154;11.536;2022-09-23T14:18:24;7.53;;;3.70;;
3815;SDS011;1923;48.154;11.536;2022-09-23T14:20:56;4.97;;;3.37;;
3815;SDS011;1923;48.154;11.536;2022-09-23T14:23:26;4.30;;;2.73;;
3815;SDS011;1923;48.154;11.536;2022-09-23T14:25:54;4.30;;;3.30;;
3815;SDS011;1923;48.154;11.536;2022-09-23T14:28:23;7.90;;;2.97;;
3815;SDS011;1923;48.154;11.536;2022-09-23T14:30:53;3.90;;;3.07;;
3815;SDS011;1923;48.154;11.536;2022-09-23T14:33:25;4.13;;;2.90;;
3815;SDS011;1923;48.154;11.536;2022-09-23T14:35:55;5.47;;;3.40;;
3815;SDS011;1923;48.154;11.536;2022-09-23T14:38:30;3.57;;;2.70;;
3815;SDS011;1923;48.154;11.536;2022-09-23T14:41:20;6.27;;;3.77;;
3815;SDS011;1923;48.154;11.536;2022-09-23T14:43:50;7.00;;;3.70;;
3815;SDS011;1923;48.154;11.536;2022-09-23T14:46:22;4.57;;;3.13;;
3815;SDS011;1923;48.154;11.536;2022-09-23T14:48:56;5.40;;;3.60;;
3815;SDS011;1923;48.154;11.536;2022-09-23T14:51:29;4.00;;;2.97;;
3815;SDS011;1923;48.154;11.536;2022-09-23T14:57:21;4.40;;;3.20;;
3815;SDS011;1923;48.154;11.536;2022-09-23T14:59:53;4.47;;;2.87;;
3815;SDS011;1923;48.154;11.536;2022-09-23T15:02:32;4.17;;;3.23;;
3815;SDS011;1923;48.154;11.536;2022-09-23T15:05:11;4.50;;;4.00;;
3815;SDS011;1923;48.154;11.536;2022-09-23T15:07:42;4.73;;;2.90;;
3815;SDS011;1923;48.154;11.536;2022-09-23T15:10:15;4.57;;;3.00;;
3815;SDS011;1923;48.154;11.536;2022-09-23T15:12:50;3.40;;;3.10;;
3815;SDS011;1923;48.154;11.536;2022-09-23T15:15:21;4.00;;;2.60;;
3815;SDS011;1923;48.154;11.536;2022-09-23T15:17:53;5.10;;;2.90;;
3815;SDS011;1923;48.154;11.536;2022-09-23T15:20:22;6.27;;;3.73;;
3815;SDS011;1923;48.154;11.536;2022-09-23T15:22:52;4.97;;;2.57;;
3815;SDS011;1923;48.154;11.536;2022-09-23T15:25:24;3.67;;;2.67;;
3815;SDS011;1923;48.154;11.536;2022-09-23T15:27:56;4.20;;;2.73;;
3815;SDS011;1923;48.154;11.536;2022-09-23T15:30:27;3.97;;;2.93;;
3815;SDS011;1923;48.154;11.536;2022-09-23T15:32:56;5.20;;;3.00;;
3815;SDS011;1923;48.154;11.536;2022-09-23T15:35:25;4.80;;;2.90;;
3815;SDS011;1923;48.154;11.536;2022-09-23T15:37:56;3.60;;;3.00;;
3815;SDS011;1923;48.154;11.536;2022-09-23T15:40:26;4.53;;;2.80;;
3815;SDS011;1923;48.154;11.536;2022-09-23T15:42:57;4.03;;;2.70;;
3815;SDS011;1923;48.154;11.536;2022-09-23T15:45:28;2.50;;;2.30;;
3815;SDS011;1923;48.154;11.536;2022-09-23T15:48:00;3.33;;;2.60;;
3815;SDS011;1923;48.154;11.536;2022-09-23T15:50:33;4.13;;;3.50;;
3815;SDS011;1923;48.154;11.536;2022-09-23T15:53:02;3.97;;;3.30;;
3815;SDS011;1923;48.154;11.536;2022-09-23T15:55:31;4.57;;;2.80;;
3815;SDS011;1923;48.154;11.536;2022-09-23T15:58:01;4.03;;;2.87;;
3815;SDS011;1923;48.154;11.536;2022-09-23T16:00:29;3.93;;;3.07;;
3815;SDS011;1923;48.154;11.536;2022-09-23T16:02:57;4.63;;;2.90;;
3815;SDS011;1923;48.154;11.536;2022-09-23T16:05:27;4.77;;;3.20;;